Time;durP1;ratioP1;P1;durP2;ratioP2;P2;SDS_P1;SDS_P2;PMS_P1;PMS_P2;Temp;Humidity;BMP_temperature;BMP_pressure;BME280_temperature;BME280_humidity;BME280_pressure;Samples;Min_cycle;Max_cycle;Signal;HPM_P1;HPM_P2
2023/04/21 00:02:25;;;;;;;31.98;22.15;;;10.10;99.90;;;;;;5154618;27;20129;-55
2023/04/21 00:04:51;;;;;;;31.48;22.83;;;10.10;99.90;;;;;;5153453;27;20036;-57
2023/04/21 00:07:18;;;;;;;31.38;22.77;;;10.10;99.90;;;;;;5132708;27;20042;-54
2023/04/21 00:09:44;;;;;;;30.73;21.85;;;10.10;99.90;;;;;;5130384;27;20042;-53
2023/04/21 00:12:10;;;;;;;30.23;22.00;;;10.10;99.90;;;;;;5151484;27;20432;-60
2023/04/21 00:14:35;;;;;;;30.35;21.83;;;10.10;99.90;;;;;;5154242;27;20050;-56
2023/04/21 00:17:01;;;;;;;29.63;21.27;;;10.00;99.90;;;;;;5156031;27;20069;-55
2023/04/21 00:19:28;;;;;;;29.88;20.55;;;10.00;99.90;;;;;;5153715;27;20645;-59
2023/04/21 00:21:57;;;;;;;28.67;21.35;;;10.00;99.90;;;;;;5151535;27;20373;-56
2023/04/21 00:24:24;;;;;;;32.28;21.38;;;9.90;99.90;;;;;;5156837;27;20481;-55
2023/04/21 00:26:50;;;;;;;28.20;21.75;;;9.90;99.90;;;;;;5110172;27;20030;-57
2023/04/21 00:29:16;;;;;;;32.28;20.30;;;9.90;99.90;;;;;;5153105;27;20370;-57
2023/04/21 00:31:42;;;;;;;32.15;20.67;;;9.90;99.90;;;;;;5153539;27;20070;-56
2023/04/21 00:34:08;;;;;;;30.23;20.60;;;9.90;99.90;;;;;;5152930;27;20034;-59
2023/04/21 00:36:34;;;;;;;31.27;21.60;;;9.80;99.90;;;;;;5156009;27;20041;-55
2023/04/21 00:39:00;;;;;;;31.90;21.13;;;9.80;99.90;;;;;;5128409;27;20182;-58
2023/04/21 00:41:27;;;;;;;29.63;20.70;;;9.80;99.90;;;;;;5154927;27;20067;-56
2023/04/21 00:44:07;;;;;;;30.60;20.90;;;9.80;99.90;;;;;;5151352;27;20030;-60
2023/04/21 00:46:34;;;;;;;31.15;21.23;;;9.70;99.90;;;;;;5154523;27;20077;-59
2023/04/21 00:49:03;;;;;;;30.83;20.77;;;9.70;99.90;;;;;;5154844;27;20022;-55
2023/04/21 00:51:31;;;;;;;29.77;19.80;;;9.70;99.90;;;;;;5153782;27;20039;-56
2023/04/21 00:53:59;;;;;;;29.55;19.63;;;9.70;99.90;;;;;;5153138;27;20065;-57
2023/04/21 00:56:27;;;;;;;31.20;19.98;;;9.70;99.90;;;;;;5150613;27;20165;-55
2023/04/21 00:58:53;;;;;;;28.00;18.98;;;9.60;99.90;;;;;;5153779;27;20038;-60
2023/04/21 01:01:19;;;;;;;31.35;20.80;;;9.60;99.90;;;;;;5128598;27;20082;-57
2023/04/21 01:03:49;;;;;;;30.15;20.15;;;9.60;99.90;;;;;;5155908;27;20035;-56
2023/04/21 01:06:14;;;;;;;27.83;18.95;;;9.60;99.90;;;;;;5128322;27;20045;-54
2023/04/21 01:08:41;;;;;;;30.42;18.88;;;9.50;99.90;;;;;;5155491;27;20043;-59
2023/04/21 01:11:11;;;;;;;30.67;18.88;;;9.50;99.90;;;;;;5156895;27;20045;-57
2023/04/21 01:13:37;;;;;;;27.27;19.17;;;9.50;99.90;;;;;;5151702;27;20489;-54
2023/04/21 01:16:03;;;;;;;31.92;19.17;;;9.50;99.90;;;;;;5153493;27;20045;-56
2023/04/21 01:18:29;;;;;;;30.45;18.75;;;9.50;99.90;;;;;;5152965;27;20034;-55
2023/04/21 01:20:55;;;;;;;27.58;17.52;;;9.40;99.90;;;;;;5127889;27;20070;-55
2023/04/21 01:23:21;;;;;;;26.17;17.92;;;9.40;99.90;;;;;;5151835;27;20034;-58
2023/04/21 01:25:47;;;;;;;29.98;18.20;;;9.40;99.90;;;;;;5152246;27;20038;-57
2023/04/21 01:28:12;;;;;;;28.88;17.73;;;9.40;99.90;;;;;;5150852;27;20026;-53
2023/04/21 01:30:38;;;;;;;27.17;17.35;;;9.40;99.90;;;;;;5151310;27;20027;-57
2023/04/21 01:33:04;;;;;;;26.13;17.60;;;9.40;99.90;;;;;;5156215;27;20038;-55
2023/04/21 01:35:29;;;;;;;27.52;17.85;;;9.40;99.90;;;;;;5158481;27;20121;-54
2023/04/21 01:37:55;;;;;;;25.98;16.75;;;9.40;99.90;;;;;;5154105;27;20103;-60
2023/04/21 01:40:21;;;;;;;30.70;17.35;;;9.40;99.90;;;;;;5158955;27;20512;-53
2023/04/21 01:42:47;;;;;;;27.23;17.63;;;9.30;99.90;;;;;;5151401;27;20049;-57
2023/04/21 01:45:12;;;;;;;26.40;16.33;;;9.40;99.90;;;;;;5161221;27;20031;-53
2023/04/21 01:47:38;;;;;;;25.35;17.15;;;9.40;99.90;;;;;;5156691;27;20034;-57
2023/04/21 01:50:04;;;;;;;26.42;15.40;;;9.40;99.90;;;;;;5156956;27;20062;-55
2023/04/21 01:52:30;;;;;;;28.15;15.93;;;9.40;99.90;;;;;;5131699;27;20427;-59
2023/04/21 01:54:56;;;;;;;24.15;15.48;;;9.40;99.90;;;;;;5130883;27;20091;-56
2023/04/21 01:57:21;;;;;;;26.55;15.65;;;9.40;99.90;;;;;;5158275;27;20485;-53
2023/04/21 01:59:48;;;;;;;29.63;16.75;;;9.40;99.90;;;;;;5158539;27;20046;-56
2023/04/21 02:02:14;;;;;;;23.45;15.75;;;9.50;99.90;;;;;;5158391;27;20042;-52
2023/04/21 02:04:39;;;;;;;22.27;15.45;;;9.50;99.90;;;;;;5130648;27;20027;-58
2023/04/21 02:07:05;;;;;;;23.20;15.48;;;9.50;99.90;;;;;;5158165;27;20704;-54
2023/04/21 02:09:31;;;;;;;24.38;15.60;;;9.50;99.90;;;;;;5155839;27;20030;-53
2023/04/21 02:11:57;;;;;;;29.08;15.70;;;9.50;99.90;;;;;;5158722;27;20038;-57
2023/04/21 02:14:23;;;;;;;26.67;15.30;;;9.50;99.90;;;;;;5156497;27;20094;-53
2023/04/21 02:16:49;;;;;;;27.83;15.75;;;9.60;99.90;;;;;;5155010;27;20323;-56
2023/04/21 02:19:15;;;;;;;22.75;15.40;;;9.60;99.90;;;;;;5156098;27;20488;-55
2023/04/21 02:21:40;;;;;;;23.83;14.48;;;9.60;99.90;;;;;;5128273;27;20252;-57
2023/04/21 02:24:06;;;;;;;24.88;15.13;;;9.70;99.90;;;;;;5156311;27;20560;-54
2023/04/21 02:26:32;;;;;;;23.95;15.52;;;9.60;99.90;;;;;;5155923;27;20027;-57
2023/04/21 02:28:57;;;;;;;22.25;14.13;;;9.60;99.90;;;;;;5132961;27;20489;-57
2023/04/21 02:31:23;;;;;;;21.70;14.48;;;9.60;99.90;;;;;;5160292;27;20087;-54
2023/04/21 02:33:49;;;;;;;23.58;14.20;;;9.60;99.90;;;;;;5128913;27;20473;-57
2023/04/21 02:36:14;;;;;;;23.85;14.93;;;9.60;99.90;;;;;;5152277;27;20115;-56
2023/04/21 02:38:40;;;;;;;25.55;15.18;;;9.60;99.90;;;;;;5150414;27;20402;-58
2023/04/21 02:41:06;;;;;;;23.27;14.20;;;9.70;99.90;;;;;;5128786;27;20489;-59
2023/04/21 02:43:31;;;;;;;23.27;14.90;;;9.70;99.90;;;;;;5158323;27;20087;-56
2023/04/21 02:45:57;;;;;;;22.63;14.50;;;9.70;99.90;;;;;;5154676;27;20087;-59
2023/04/21 02:48:23;;;;;;;20.70;14.40;;;9.70;99.90;;;;;;5131929;27;20145;-60
2023/04/21 02:50:49;;;;;;;22.35;13.93;;;9.70;99.90;;;;;;5159044;27;20039;-55
2023/04/21 02:53:15;;;;;;;20.48;14.05;;;9.70;99.90;;;;;;5129518;27;20027;-55
2023/04/21 02:55:41;;;;;;;25.08;14.48;;;9.70;99.90;;;;;;5112202;27;20046;-56
2023/04/21 02:58:07;;;;;;;21.73;14.02;;;9.70;99.90;;;;;;5157283;27;20035;-55
2023/04/21 03:00:33;;;;;;;22.77;14.23;;;9.70;99.90;;;;;;5154808;27;20051;-56
2023/04/21 03:02:58;;;;;;;21.02;14.18;;;9.70;99.90;;;;;;5156120;27;20038;-56
2023/04/21 03:05:24;;;;;;;20.25;13.05;;;9.70;99.90;;;;;;5154648;27;20080;-55
2023/04/21 03:07:50;;;;;;;22.70;13.93;;;9.70;99.90;;;;;;5156867;27;20103;-54
2023/04/21 03:10:16;;;;;;;25.15;14.15;;;9.70;99.90;;;;;;5156722;27;20485;-54
2023/04/21 03:12:42;;;;;;;25.42;15.23;;;9.70;99.90;;;;;;5128713;27;20038;-58
2023/04/21 03:15:08;;;;;;;20.27;13.98;;;9.70;99.90;;;;;;5128206;27;20369;-53
2023/04/21 03:17:33;;;;;;;20.58;14.07;;;9.70;99.90;;;;;;5155453;27;20519;-59
2023/04/21 03:19:59;;;;;;;22.63;14.65;;;9.70;99.90;;;;;;5152274;27;20067;-59
2023/04/21 03:22:25;;;;;;;19.73;13.77;;;9.70;99.90;;;;;;5157296;27;20045;-56
2023/04/21 03:24:50;;;;;;;22.45;14.38;;;9.60;99.90;;;;;;5158711;27;20065;-57
2023/04/21 03:27:16;;;;;;;24.30;14.40;;;9.70;99.90;;;;;;5132332;27;20430;-56
2023/04/21 03:29:42;;;;;;;22.02;14.30;;;9.70;99.90;;;;;;5152048;27;20476;-58
2023/04/21 03:32:07;;;;;;;19.65;13.60;;;9.70;99.90;;;;;;5160416;27;20393;-58
2023/04/21 03:34:33;;;;;;;19.25;13.02;;;9.70;99.90;;;;;;5128633;27;20076;-58
2023/04/21 03:36:59;;;;;;;22.83;13.82;;;9.70;99.90;;;;;;5156682;27;20035;-58
2023/04/21 03:39:24;;;;;;;21.00;13.52;;;9.70;99.90;;;;;;5113293;27;20066;-54
2023/04/21 03:41:50;;;;;;;22.90;13.27;;;9.70;99.90;;;;;;5155047;27;20382;-54
2023/04/21 03:44:16;;;;;;;20.02;13.90;;;9.60;99.90;;;;;;5156914;27;20037;-58
2023/04/21 03:46:41;;;;;;;19.80;13.52;;;9.70;99.90;;;;;;5155749;27;20030;-58
2023/04/21 03:49:07;;;;;;;20.48;13.90;;;9.60;99.90;;;;;;5156462;27;20031;-57
2023/04/21 03:51:33;;;;;;;24.00;13.25;;;9.60;99.90;;;;;;5153127;27;20488;-57
2023/04/21 03:53:58;;;;;;;21.73;13.13;;;9.60;99.90;;;;;;5153299;27;20026;-59
2023/04/21 03:56:24;;;;;;;22.08;12.10;;;9.60;99.90;;;;;;5124959;27;20041;-60
2023/04/21 03:58:50;;;;;;;21.05;12.57;;;9.60;99.90;;;;;;5150976;27;20027;-53
2023/04/21 04:01:15;;;;;;;18.70;11.68;;;9.60;99.90;;;;;;5155486;27;20035;-52
2023/04/21 04:03:41;;;;;;;16.48;11.10;;;9.60;99.90;;;;;;5113378;27;20034;-52
2023/04/21 04:06:07;;;;;;;17.00;11.38;;;9.60;99.90;;;;;;5153326;27;20034;-53
2023/04/21 04:08:32;;;;;;;17.17;11.68;;;9.60;99.90;;;;;;5156630;27;20129;-54
2023/04/21 04:10:58;;;;;;;17.75;12.38;;;9.60;99.90;;;;;;5110269;27;20042;-57
2023/04/21 04:13:25;;;;;;;18.90;12.10;;;9.50;99.90;;;;;;5156301;27;20381;-57
2023/04/21 04:15:51;;;;;;;19.58;11.88;;;9.50;99.90;;;;;;5154252;27;20408;-56
2023/04/21 04:18:17;;;;;;;16.30;12.15;;;9.50;99.90;;;;;;5153391;27;20038;-59
2023/04/21 04:20:42;;;;;;;22.17;12.13;;;9.40;99.90;;;;;;5151055;27;20064;-55
2023/04/21 04:23:08;;;;;;;20.48;12.45;;;9.50;99.90;;;;;;5156347;27;20029;-53
2023/04/21 04:25:34;;;;;;;17.77;11.43;;;9.40;99.90;;;;;;5155376;27;20113;-55
2023/04/21 04:27:59;;;;;;;17.65;11.95;;;9.40;99.90;;;;;;5151980;27;20659;-56
2023/04/21 04:30:28;;;;;;;23.10;13.00;;;9.40;99.90;;;;;;5154878;27;20144;-54
2023/04/21 04:32:56;;;;;;;20.33;12.35;;;9.40;99.90;;;;;;5149391;27;20098;-57
2023/04/21 04:35:22;;;;;;;18.65;11.98;;;9.40;99.90;;;;;;5145738;27;20370;-56
2023/04/21 04:37:48;;;;;;;19.95;12.23;;;9.30;99.90;;;;;;5150781;27;20098;-52
2023/04/21 04:40:14;;;;;;;23.98;13.00;;;9.40;99.90;;;;;;5131669;27;20042;-54
2023/04/21 04:42:41;;;;;;;18.45;11.20;;;9.40;99.90;;;;;;5126705;27;20033;-56
2023/04/21 04:45:08;;;;;;;20.30;11.75;;;9.40;99.90;;;;;;5151964;27;20077;-56
2023/04/21 04:47:37;;;;;;;18.70;11.70;;;9.40;99.90;;;;;;5126554;27;20438;-55
2023/04/21 04:50:03;;;;;;;18.35;11.95;;;9.40;99.90;;;;;;5151116;27;20039;-57
2023/04/21 04:52:29;;;;;;;16.95;11.43;;;9.40;99.90;;;;;;5152213;27;20358;-57
2023/04/21 04:54:55;;;;;;;20.05;12.48;;;9.50;99.90;;;;;;5154960;27;20037;-57
2023/04/21 04:57:21;;;;;;;17.08;11.73;;;9.50;99.90;;;;;;5153991;27;20038;-57
2023/04/21 04:59:46;;;;;;;22.70;11.95;;;9.50;99.90;;;;;;5154582;27;20027;-57
2023/04/21 05:02:12;;;;;;;18.30;11.80;;;9.60;99.90;;;;;;5130012;27;20157;-57
2023/04/21 05:04:38;;;;;;;19.85;11.10;;;9.60;99.90;;;;;;5149428;27;20055;-56
2023/04/21 05:07:06;;;;;;;19.75;12.38;;;9.60;99.90;;;;;;5152165;27;20045;-59
2023/04/21 05:09:32;;;;;;;17.80;11.48;;;9.70;99.90;;;;;;5157867;27;20038;-59
2023/04/21 05:11:58;;;;;;;17.25;11.23;;;9.80;99.90;;;;;;5159534;27;20081;-54
2023/04/21 05:14:25;;;;;;;20.02;12.40;;;9.70;99.90;;;;;;5131588;27;20798;-58
2023/04/21 05:16:51;;;;;;;20.98;12.07;;;9.70;99.90;;;;;;5154327;27;20111;-56
2023/04/21 05:19:17;;;;;;;21.98;11.95;;;9.80;99.90;;;;;;5151801;27;20481;-57
2023/04/21 05:21:42;;;;;;;18.27;11.50;;;9.80;99.90;;;;;;5152494;27;20038;-52
2023/04/21 05:24:08;;;;;;;20.20;10.90;;;9.90;99.90;;;;;;5159642;27;20030;-55
2023/04/21 05:26:34;;;;;;;16.45;11.45;;;9.90;99.90;;;;;;5158815;27;20038;-54
2023/04/21 05:28:59;;;;;;;20.55;11.63;;;9.90;99.90;;;;;;5156778;27;20054;-56
2023/04/21 05:31:25;;;;;;;18.30;10.98;;;9.90;99.90;;;;;;5157722;27;20046;-59
2023/04/21 05:33:51;;;;;;;18.80;11.38;;;10.00;99.90;;;;;;5159174;27;20355;-60
2023/04/21 05:36:19;;;;;;;18.98;11.95;;;10.00;99.90;;;;;;5159951;27;20034;-59
2023/04/21 05:38:45;;;;;;;19.70;11.18;;;10.10;99.90;;;;;;5157341;27;20498;-53
2023/04/21 05:41:10;;;;;;;17.63;11.27;;;10.10;99.90;;;;;;5157638;27;20146;-57
2023/04/21 05:43:36;;;;;;;20.33;11.32;;;10.10;99.90;;;;;;5130211;27;20022;-57
2023/04/21 05:46:07;;;;;;;22.95;11.63;;;10.10;99.90;;;;;;5160149;27;20094;-55
2023/04/21 05:48:33;;;;;;;16.70;10.65;;;10.10;99.90;;;;;;5157837;27;20030;-57
2023/04/21 05:51:11;;;;;;;17.98;11.52;;;10.10;99.90;;;;;;5157790;27;20446;-56
2023/04/21 05:53:37;;;;;;;22.75;11.60;;;10.10;99.90;;;;;;5156100;27;20337;-59
2023/04/21 05:56:04;;;;;;;22.05;11.05;;;10.00;99.90;;;;;;5161047;27;20042;-55
2023/04/21 05:58:30;;;;;;;17.98;10.98;;;10.00;99.90;;;;;;5154719;27;20023;-55
2023/04/21 06:00:56;;;;;;;19.73;11.95;;;10.00;99.90;;;;;;5133445;27;20038;-58
2023/04/21 06:03:21;;;;;;;19.00;10.43;;;10.00;99.90;;;;;;5154682;27;20031;-55
2023/04/21 06:05:51;;;;;;;17.95;10.55;;;10.10;99.90;;;;;;5130578;27;20034;-55
2023/04/21 06:08:17;;;;;;;18.80;11.10;;;10.10;99.90;;;;;;5131650;27;20484;-58
2023/04/21 06:10:43;;;;;;;19.38;11.55;;;10.10;99.90;;;;;;5158013;27;20131;-58
2023/04/21 06:13:08;;;;;;;22.90;12.02;;;10.20;99.90;;;;;;5128696;27;20042;-57
2023/04/21 06:15:34;;;;;;;15.60;10.88;;;10.20;99.90;;;;;;5157717;27;20129;-56
2023/04/21 06:18:00;;;;;;;19.33;11.18;;;10.20;99.90;;;;;;5158538;27;20065;-54
2023/04/21 06:20:26;;;;;;;16.48;10.82;;;10.20;99.90;;;;;;5157964;27;20089;-54
2023/04/21 06:22:51;;;;;;;15.23;11.15;;;10.30;99.90;;;;;;5158724;27;20113;-57
2023/04/21 06:25:17;;;;;;;18.58;11.93;;;10.30;99.90;;;;;;5155201;27;20596;-56
2023/04/21 06:27:44;;;;;;;18.77;10.88;;;10.30;99.90;;;;;;5157920;27;20497;-54
2023/04/21 06:30:10;;;;;;;19.38;10.98;;;10.30;99.90;;;;;;5157184;27;20380;-58
2023/04/21 06:32:36;;;;;;;13.25;10.32;;;10.40;99.90;;;;;;5156691;27;20039;-53
2023/04/21 06:35:02;;;;;;;18.33;11.75;;;10.40;99.90;;;;;;5155969;27;20035;-57
2023/04/21 06:37:27;;;;;;;19.75;11.20;;;10.40;99.90;;;;;;5158714;27;20066;-57
2023/04/21 06:39:53;;;;;;;17.88;11.27;;;10.40;99.90;;;;;;5130165;27;20050;-60
2023/04/21 06:42:19;;;;;;;17.95;11.48;;;10.50;99.90;;;;;;5159289;27;20025;-58
2023/04/21 06:44:44;;;;;;;16.83;10.63;;;10.50;99.90;;;;;;5159480;27;20045;-58
2023/04/21 06:47:10;;;;;;;20.58;11.18;;;10.50;99.90;;;;;;5156522;27;20030;-57
2023/04/21 06:49:36;;;;;;;17.73;11.20;;;10.60;99.90;;;;;;5112676;27;20794;-56
2023/04/21 06:52:02;;;;;;;18.23;11.68;;;10.60;99.90;;;;;;5132313;27;20095;-56
2023/04/21 06:54:28;;;;;;;18.65;11.40;;;10.60;99.90;;;;;;5156136;27;20034;-60
2023/04/21 06:56:55;;;;;;;18.80;11.27;;;10.60;99.90;;;;;;5153988;27;20035;-57
2023/04/21 06:59:21;;;;;;;16.73;11.07;;;10.70;99.90;;;;;;5156829;27;20109;-56
2023/04/21 07:01:50;;;;;;;16.42;10.95;;;10.70;99.90;;;;;;5131540;27;20160;-55
2023/04/21 07:04:19;;;;;;;19.98;11.30;;;10.70;99.90;;;;;;5111558;27;20062;-56
2023/04/21 07:06:46;;;;;;;16.33;11.27;;;10.80;99.90;;;;;;5130176;27;20137;-58
2023/04/21 07:09:11;;;;;;;16.75;10.98;;;10.90;99.90;;;;;;5158621;27;20070;-58
2023/04/21 07:11:37;;;;;;;15.60;10.27;;;10.90;99.90;;;;;;5128806;27;20450;-56
2023/04/21 07:14:03;;;;;;;19.38;10.95;;;11.00;99.90;;;;;;5158727;27;20117;-58
2023/04/21 07:16:29;;;;;;;17.88;11.52;;;11.00;99.90;;;;;;5158398;27;20125;-57
2023/04/21 07:18:55;;;;;;;20.63;11.52;;;11.10;99.90;;;;;;5157916;27;20049;-56
2023/04/21 07:21:20;;;;;;;18.15;11.10;;;11.10;99.90;;;;;;5134339;27;20480;-56
2023/04/21 07:23:46;;;;;;;18.15;11.07;;;11.20;99.90;;;;;;5155648;27;20036;-57
2023/04/21 07:26:12;;;;;;;16.48;11.18;;;11.30;99.90;;;;;;5157879;27;20075;-61
2023/04/21 07:28:39;;;;;;;19.60;11.90;;;11.30;99.90;;;;;;5130960;27;20042;-55
2023/04/21 07:31:05;;;;;;;18.23;11.55;;;11.40;99.90;;;;;;5130846;27;20517;-57
2023/04/21 07:33:31;;;;;;;16.67;11.35;;;11.50;99.90;;;;;;5156784;27;20030;-56
2023/04/21 07:35:57;;;;;;;18.73;11.68;;;11.50;99.90;;;;;;5155122;27;20499;-60
2023/04/21 07:38:23;;;;;;;19.00;11.57;;;11.60;99.90;;;;;;5157971;27;20405;-56
2023/04/21 07:40:48;;;;;;;20.00;11.82;;;11.60;99.90;;;;;;5157255;27;20045;-54
2023/04/21 07:43:14;;;;;;;17.98;11.70;;;11.60;99.90;;;;;;5133650;27;20028;-56
2023/04/21 07:45:40;;;;;;;20.40;11.73;;;11.60;99.90;;;;;;5157119;27;20722;-57
2023/04/21 07:48:06;;;;;;;18.80;11.25;;;11.70;99.90;;;;;;5158328;27;20031;-54
2023/04/21 07:50:34;;;;;;;18.73;10.60;;;11.70;99.90;;;;;;5130511;27;20113;-58
2023/04/21 07:53:00;;;;;;;19.60;11.93;;;11.80;99.90;;;;;;5158107;27;20037;-57
2023/04/21 07:55:26;;;;;;;17.20;11.63;;;11.80;99.90;;;;;;5154702;27;20142;-57
2023/04/21 07:57:52;;;;;;;17.17;11.40;;;11.80;99.90;;;;;;5155631;27;20043;-57
2023/04/21 08:00:18;;;;;;;17.10;11.20;;;11.90;99.90;;;;;;5157760;27;20030;-58
2023/04/21 08:02:44;;;;;;;20.48;11.98;;;11.90;99.90;;;;;;5156020;27;20121;-60
2023/04/21 08:05:09;;;;;;;20.17;11.40;;;11.90;99.90;;;;;;5157787;27;20034;-58
2023/04/21 08:07:35;;;;;;;16.92;10.88;;;12.00;99.90;;;;;;5154992;27;20031;-57
2023/04/21 08:10:01;;;;;;;17.27;10.82;;;12.00;99.90;;;;;;5154562;27;20030;-56
2023/04/21 08:12:27;;;;;;;21.42;12.18;;;12.10;99.90;;;;;;5158090;27;20194;-59
2023/04/21 08:14:53;;;;;;;14.32;11.55;;;12.10;99.90;;;;;;5155087;27;20250;-56
2023/04/21 08:17:19;;;;;;;15.23;11.27;;;12.10;99.90;;;;;;5150836;27;20280;-58
2023/04/21 08:19:44;;;;;;;17.90;11.10;;;12.10;99.90;;;;;;5154687;27;20481;-57
2023/04/21 08:22:10;;;;;;;17.02;11.52;;;12.20;99.90;;;;;;5125710;27;20027;-53
2023/04/21 08:24:36;;;;;;;16.27;12.15;;;12.20;99.90;;;;;;5155535;27;20046;-58
2023/04/21 08:27:02;;;;;;;17.70;12.55;;;12.30;99.90;;;;;;5153308;27;20515;-60
2023/04/21 08:29:28;;;;;;;17.90;11.27;;;12.40;99.90;;;;;;5154050;27;20317;-56
2023/04/21 08:31:53;;;;;;;17.98;11.75;;;12.40;99.90;;;;;;5156347;27;20397;-56
2023/04/21 08:34:19;;;;;;;16.88;11.35;;;12.50;99.90;;;;;;5136129;27;20058;-56
2023/04/21 08:36:46;;;;;;;19.02;12.27;;;12.70;99.90;;;;;;5165303;27;20026;-58
2023/04/21 08:39:13;;;;;;;15.20;10.98;;;12.80;99.90;;;;;;5165616;27;20137;-56
2023/04/21 08:41:40;;;;;;;17.33;11.90;;;13.00;99.90;;;;;;5169946;27;20489;-58
2023/04/21 08:44:06;;;;;;;15.63;11.45;;;13.20;99.90;;;;;;5169834;27;20113;-59
2023/04/21 08:46:33;;;;;;;16.65;11.77;;;13.30;99.90;;;;;;5171197;27;20086;-53
2023/04/21 08:48:59;;;;;;;17.90;11.15;;;13.40;99.90;;;;;;5167973;27;20098;-56
2023/04/21 08:51:27;;;;;;;15.85;12.35;;;13.50;99.90;;;;;;5171246;27;20063;-59
2023/04/21 08:53:54;;;;;;;17.13;12.30;;;13.50;99.90;;;;;;5168588;27;20062;-56
2023/04/21 08:56:19;;;;;;;21.25;12.75;;;13.50;99.90;;;;;;5170601;27;20038;-60
2023/04/21 08:58:45;;;;;;;16.10;11.90;;;13.60;99.90;;;;;;5170033;27;20030;-56
2023/04/21 09:01:11;;;;;;;19.88;12.45;;;13.80;99.90;;;;;;5171823;27;20034;-54
2023/04/21 09:03:37;;;;;;;17.52;11.90;;;13.90;99.90;;;;;;5170753;27;20037;-57
2023/04/21 09:06:05;;;;;;;19.70;12.20;;;14.00;99.90;;;;;;5171175;27;20126;-55
2023/04/21 09:08:31;;;;;;;20.70;13.20;;;14.20;99.90;;;;;;5170177;27;20034;-58
2023/04/21 09:10:58;;;;;;;17.52;11.05;;;14.30;99.90;;;;;;5137807;27;20082;-56
2023/04/21 09:13:34;;;;;;;19.30;11.10;;;14.40;99.90;;;;;;5169329;27;20511;-57
2023/04/21 09:16:13;;;;;;;17.80;12.43;;;14.60;99.90;;;;;;5171349;27;20126;-57
2023/04/21 09:18:39;;;;;;;16.83;12.07;;;14.80;99.90;;;;;;5169356;27;20050;-55
2023/04/21 09:21:16;;;;;;;16.90;11.75;;;15.00;99.90;;;;;;5169791;27;20038;-53
2023/04/21 09:23:50;;;;;;;17.17;11.70;;;15.20;99.90;;;;;;5171979;27;20108;-58
2023/04/21 09:26:17;;;;;;;16.92;12.15;;;15.20;99.90;;;;;;5167339;27;20469;-58
2023/04/21 09:28:45;;;;;;;16.75;11.95;;;15.10;99.90;;;;;;5142759;27;20070;-57
2023/04/21 09:31:23;;;;;;;20.52;12.43;;;15.10;99.90;;;;;;5159633;27;20038;-55
2023/04/21 09:33:54;;;;;;;20.55;12.70;;;15.10;99.90;;;;;;5141131;27;20474;-56
2023/04/21 09:36:22;;;;;;;16.95;12.82;;;15.00;99.90;;;;;;5153498;27;20078;-57
2023/04/21 09:38:53;;;;;;;16.13;12.02;;;14.90;99.90;;;;;;5172352;27;20517;-55
2023/04/21 09:41:20;;;;;;;17.13;11.38;;;14.80;99.90;;;;;;5170643;27;20049;-55
2023/04/21 09:43:46;;;;;;;17.08;12.25;;;14.80;99.90;;;;;;5139153;27;20027;-57
2023/04/21 09:46:15;;;;;;;19.83;12.35;;;14.80;99.90;;;;;;5165218;27;20499;-59
2023/04/21 09:48:43;;;;;;;18.63;12.48;;;14.80;99.90;;;;;;5171100;27;20042;-56
2023/04/21 09:51:14;;;;;;;20.70;12.38;;;15.10;99.90;;;;;;5170042;27;20050;-56
2023/04/21 09:53:41;;;;;;;19.75;11.85;;;15.30;99.90;;;;;;5171436;27;20066;-57
2023/04/21 09:56:15;;;;;;;19.65;11.80;;;15.40;99.90;;;;;;5172697;27;20174;-57
2023/04/21 09:58:47;;;;;;;16.52;11.65;;;15.50;99.90;;;;;;5174422;27;20043;-58
2023/04/21 10:01:14;;;;;;;16.92;12.38;;;15.70;99.90;;;;;;5176516;27;20151;-56
2023/04/21 10:03:42;;;;;;;15.55;12.23;;;15.80;99.90;;;;;;5157231;27;20038;-59
2023/04/21 10:06:08;;;;;;;18.00;13.05;;;15.80;99.90;;;;;;5174621;27;20050;-54
2023/04/21 10:08:35;;;;;;;16.90;12.85;;;15.80;99.90;;;;;;5174638;27;20057;-58
2023/04/21 10:11:01;;;;;;;15.70;11.88;;;15.70;99.90;;;;;;5146155;27;20050;-59
2023/04/21 10:13:27;;;;;;;19.45;12.90;;;15.60;99.90;;;;;;5163727;27;20045;-57
2023/04/21 10:16:07;;;;;;;19.55;12.20;;;15.50;99.90;;;;;;5175244;27;20388;-54
2023/04/21 10:18:45;;;;;;;19.27;12.20;;;15.40;99.90;;;;;;5174850;27;20030;-57
2023/04/21 10:21:16;;;;;;;17.85;13.23;;;15.40;99.90;;;;;;5174093;27;20480;-57
2023/04/21 10:23:44;;;;;;;16.05;12.25;;;15.40;99.90;;;;;;5174340;27;20479;-56
2023/04/21 10:26:36;;;;;;;27.98;12.70;;;15.30;99.90;;;;;;5136324;27;20039;-55
2023/04/21 10:29:08;;;;;;;19.00;13.82;;;15.30;99.90;;;;;;5134618;27;20050;-58
2023/04/21 10:31:37;;;;;;;16.20;13.57;;;15.30;99.90;;;;;;5174412;27;20034;-58
2023/04/21 10:34:10;;;;;;;17.95;13.38;;;15.30;99.90;;;;;;5172902;27;20496;-57
2023/04/21 10:36:45;;;;;;;18.73;13.32;;;15.30;99.90;;;;;;5173801;27;20038;-56
2023/04/21 10:39:35;;;;;;;16.92;12.63;;;15.30;99.90;;;;;;5132495;27;20063;-57
2023/04/21 10:42:15;;;;;;;21.05;13.05;;;15.20;99.90;;;;;;5134228;27;20474;-56
2023/04/21 10:44:53;;;;;;;20.10;13.10;;;15.20;99.90;;;;;;5158523;27;20125;-56
2023/04/21 10:47:35;;;;;;;21.77;13.70;;;15.20;99.90;;;;;;5172541;27;20098;-55
2023/04/21 10:50:10;;;;;;;19.20;13.75;;;15.10;99.90;;;;;;5140419;27;20122;-56
2023/04/21 10:52:35;;;;;;;20.85;14.00;;;15.10;99.90;;;;;;5174417;27;20038;-57
2023/04/21 10:55:02;;;;;;;19.63;13.73;;;15.00;99.90;;;;;;5172781;27;20037;-56
2023/04/21 10:57:32;;;;;;;17.42;13.48;;;15.00;99.90;;;;;;5172487;27;20061;-59
2023/04/21 10:59:58;;;;;;;18.88;13.35;;;15.10;99.90;;;;;;5172619;27;20082;-57
2023/04/21 11:02:23;;;;;;;21.65;13.95;;;15.00;99.90;;;;;;5174002;27;20065;-58
2023/04/21 11:04:50;;;;;;;19.33;13.30;;;15.10;99.90;;;;;;5171945;27;20065;-58
2023/04/21 11:07:21;;;;;;;18.77;14.18;;;15.10;99.90;;;;;;5173367;27;20041;-56
2023/04/21 11:09:55;;;;;;;18.05;13.98;;;15.10;99.90;;;;;;5173208;27;20039;-59
2023/04/21 11:12:25;;;;;;;18.40;13.00;;;15.10;99.90;;;;;;5141298;27;20058;-58
2023/04/21 11:14:51;;;;;;;21.55;14.85;;;15.20;99.90;;;;;;5168712;27;20034;-55
2023/04/21 11:17:19;;;;;;;19.75;13.82;;;15.20;99.90;;;;;;5173662;27;20053;-55
2023/04/21 11:19:46;;;;;;;17.95;13.35;;;15.30;99.90;;;;;;5170945;27;20057;-59
2023/04/21 11:22:12;;;;;;;17.33;13.30;;;15.40;99.90;;;;;;5173517;27;20034;-57
2023/04/21 11:24:44;;;;;;;18.83;13.45;;;15.40;99.90;;;;;;5171908;27;20358;-55
2023/04/21 11:27:11;;;;;;;20.00;14.02;;;15.40;99.90;;;;;;5173640;27;20038;-57
2023/04/21 11:29:37;;;;;;;20.27;13.38;;;15.40;99.90;;;;;;5131504;27;20043;-59
2023/04/21 11:32:05;;;;;;;21.02;14.30;;;15.40;99.90;;;;;;5158688;27;20083;-58
2023/04/21 11:34:31;;;;;;;19.00;13.88;;;15.30;99.90;;;;;;5133054;27;20099;-54
2023/04/21 11:36:57;;;;;;;18.98;13.68;;;15.30;99.90;;;;;;5155164;27;20134;-55
2023/04/21 11:39:22;;;;;;;21.35;14.63;;;15.30;99.90;;;;;;5173109;27;20046;-56
2023/04/21 11:41:50;;;;;;;16.95;13.05;;;15.30;99.90;;;;;;5172566;27;20465;-56
2023/04/21 11:44:34;;;;;;;19.70;13.73;;;15.30;99.90;;;;;;5172148;27;20434;-59
2023/04/21 11:47:31;;;;;;;17.05;13.77;;;15.40;99.90;;;;;;5171250;27;20042;-56
2023/04/21 11:49:59;;;;;;;21.77;14.60;;;15.40;99.90;;;;;;5173739;27;20053;-55
2023/04/21 11:52:27;;;;;;;21.73;14.05;;;15.50;99.90;;;;;;5174113;27;20135;-56
2023/04/21 11:54:55;;;;;;;19.92;13.60;;;15.60;99.90;;;;;;5172971;27;20070;-58
2023/04/21 11:57:23;;;;;;;18.15;14.32;;;15.70;99.90;;;;;;5131612;27;20050;-60
2023/04/21 11:59:49;;;;;;;18.05;14.48;;;15.90;99.90;;;;;;5158532;27;20038;-57
2023/04/21 12:02:26;;;;;;;23.00;15.82;;;15.90;99.90;;;;;;5170996;27;20439;-57
2023/04/21 12:05:04;;;;;;;16.85;14.23;;;16.10;99.90;;;;;;5174267;27;20030;-56
2023/04/21 12:07:40;;;;;;;18.60;14.55;;;16.10;99.90;;;;;;5173922;27;20426;-57
2023/04/21 12:10:10;;;;;;;16.90;13.52;;;16.20;99.90;;;;;;5171666;27;20040;-58
2023/04/21 12:12:40;;;;;;;17.30;14.35;;;16.30;99.90;;;;;;5171804;27;20469;-56
2023/04/21 12:15:07;;;;;;;22.23;15.68;;;16.40;99.90;;;;;;5170899;27;20637;-60
2023/04/21 12:17:44;;;;;;;21.13;14.38;;;16.40;99.90;;;;;;5172177;27;20071;-57
2023/04/21 12:20:10;;;;;;;19.92;14.88;;;16.50;99.90;;;;;;5171080;27;20397;-58
2023/04/21 12:22:36;;;;;;;25.30;14.35;;;16.50;99.90;;;;;;5171883;27;20401;-54
2023/04/21 12:25:01;;;;;;;18.10;14.73;;;16.50;99.90;;;;;;5171474;27;20044;-58
2023/04/21 12:27:28;;;;;;;21.45;14.68;;;16.50;99.90;;;;;;5172372;27;20076;-55
2023/04/21 12:29:53;;;;;;;17.35;14.15;;;16.50;99.90;;;;;;5173818;27;20048;-58
2023/04/21 12:32:20;;;;;;;19.17;14.75;;;16.50;99.90;;;;;;5154519;27;20451;-57